createdAt,value
2023-03-10T00:00:35.357Z,0.00
2023-03-10T00:01:34.774Z,0.00
2023-03-10T00:02:34.959Z,0.00
2023-03-10T00:03:36.319Z,0.00
2023-03-10T00:04:36.412Z,0.00
2023-03-10T00:05:35.680Z,0.00
2023-03-10T00:06:35.784Z,0.00
2023-03-10T00:07:37.815Z,0.00
2023-03-10T00:08:36.387Z,0.00
2023-03-10T00:09:36.469Z,0.00
2023-03-10T00:10:36.642Z,0.00
2023-03-10T00:11:36.834Z,0.00
2023-03-10T00:12:37.814Z,0.00
2023-03-10T00:13:37.240Z,0.00
2023-03-10T00:14:37.455Z,0.00
2023-03-10T00:15:37.722Z,0.00
2023-03-10T00:16:37.805Z,0.00
2023-03-10T00:17:37.993Z,0.00
2023-03-10T00:18:38.164Z,0.00
2023-03-10T00:19:38.353Z,0.00
2023-03-10T00:20:39.325Z,0.00
2023-03-10T00:21:38.796Z,0.00
2023-03-10T00:22:38.834Z,0.00
2023-03-10T00:23:39.870Z,0.00
2023-03-10T00:24:39.132Z,0.00
2023-03-10T00:25:39.880Z,0.00
2023-03-10T00:26:40.328Z,0.00
2023-03-10T00:27:39.591Z,0.00
2023-03-10T00:28:39.782Z,0.00
2023-03-10T00:29:39.957Z,0.00
2023-03-10T00:30:40.126Z,0.00
2023-03-10T00:31:40.366Z,0.00
2023-03-10T00:32:41.984Z,0.00
2023-03-10T00:33:41.324Z,0.00
2023-03-10T00:34:40.820Z,0.00
2023-03-10T00:35:41.105Z,0.00
2023-03-10T00:36:41.817Z,0.00
2023-03-10T00:37:41.356Z,0.00
2023-03-10T00:38:42.838Z,0.00
2023-03-10T00:39:41.748Z,0.00
2023-03-10T00:40:42.881Z,0.00
2023-03-10T00:41:42.817Z,0.00
2023-03-10T00:42:43.818Z,0.00
2023-03-10T00:43:43.184Z,0.00
2023-03-10T00:44:42.719Z,0.00
2023-03-10T00:45:43.820Z,0.00
2023-03-10T00:46:43.121Z,0.00
2023-03-10T00:47:44.195Z,0.00
2023-03-10T00:48:44.360Z,0.00
2023-03-10T00:49:43.478Z,0.00
2023-03-10T00:50:43.603Z,0.00
2023-03-10T00:51:44.840Z,0.00
2023-03-10T00:52:44.824Z,0.00
2023-03-10T00:53:44.844Z,0.00
2023-03-10T00:54:44.234Z,0.00
2023-03-10T00:55:45.398Z,0.00
2023-03-10T00:56:45.408Z,0.00
2023-03-10T00:57:44.656Z,0.00
2023-03-10T00:58:44.834Z,0.00
2023-03-10T00:59:50.326Z,0.00
2023-03-10T01:00:47.828Z,0.00
2023-03-10T01:01:45.390Z,0.00
2023-03-10T01:02:45.511Z,0.00
2023-03-10T01:03:46.331Z,0.00
2023-03-10T01:04:46.460Z,0.00
2023-03-10T01:05:46.005Z,0.00
2023-03-10T01:06:47.150Z,0.00
2023-03-10T01:07:46.270Z,0.00
2023-03-10T01:08:47.827Z,0.00
2023-03-10T01:09:46.580Z,0.00
2023-03-10T01:10:48.191Z,0.00
2023-03-10T01:11:47.830Z,0.00
2023-03-10T01:12:47.089Z,0.00
2023-03-10T01:13:47.307Z,0.00
2023-03-10T01:14:47.464Z,0.00
2023-03-10T01:15:47.890Z,0.00
2023-03-10T01:16:47.746Z,0.00
2023-03-10T01:17:47.921Z,0.00
2023-03-10T01:18:48.081Z,0.00
2023-03-10T01:19:48.224Z,0.00
2023-03-10T01:20:48.391Z,0.00
2023-03-10T01:21:49.328Z,0.00
2023-03-10T01:22:48.698Z,0.00
2023-03-10T01:23:48.853Z,0.00
2023-03-10T01:24:49.007Z,0.00
2023-03-10T01:25:49.193Z,0.00
2023-03-10T01:26:49.347Z,0.00
2023-03-10T01:27:49.501Z,0.00
2023-03-10T01:28:49.679Z,0.00
2023-03-10T01:29:49.912Z,0.00
2023-03-10T01:30:49.948Z,0.00
2023-03-10T01:31:50.170Z,0.00
2023-03-10T01:32:52.391Z,0.00
2023-03-10T01:33:50.524Z,0.00
2023-03-10T01:34:50.723Z,0.00
2023-03-10T01:35:51.006Z,0.00
2023-03-10T01:36:51.874Z,0.00
2023-03-10T01:37:51.889Z,0.00
2023-03-10T01:38:52.346Z,0.00
2023-03-10T01:39:51.918Z,0.00
2023-03-10T01:40:51.758Z,0.00
2023-03-10T01:41:51.933Z,0.00
2023-03-10T01:42:53.331Z,0.00
2023-03-10T01:43:52.889Z,0.00
2023-03-10T01:44:52.956Z,0.00
2023-03-10T01:45:53.337Z,0.00
2023-03-10T01:46:53.160Z,0.00
2023-03-10T01:47:53.166Z,0.00
2023-03-10T01:48:53.321Z,0.00
2023-03-10T01:49:53.517Z,0.00
2023-03-10T01:50:54.391Z,0.00
2023-03-10T01:51:54.909Z,0.00
2023-03-10T01:52:54.146Z,0.00
2023-03-10T01:53:55.301Z,0.00
2023-03-10T01:54:56.341Z,0.00
2023-03-10T01:55:55.339Z,0.00
2023-03-10T01:56:56.338Z,0.00
2023-03-10T01:57:55.702Z,0.00
2023-03-10T01:58:55.113Z,0.00
2023-03-10T01:59:55.411Z,0.00
2023-03-10T02:00:56.453Z,0.00
2023-03-10T02:01:55.701Z,0.00
2023-03-10T02:02:56.344Z,0.00
2023-03-10T02:03:57.792Z,0.00
2023-03-10T02:04:56.410Z,0.00
2023-03-10T02:05:57.846Z,0.00
2023-03-10T02:06:57.396Z,0.00
2023-03-10T02:07:57.412Z,0.00
2023-03-10T02:08:58.216Z,0.00
2023-03-10T02:09:57.894Z,0.00
2023-03-10T02:10:57.233Z,0.00
2023-03-10T02:11:57.839Z,0.00
2023-03-10T02:12:57.461Z,0.00
2023-03-10T02:13:57.639Z,0.00
2023-03-10T02:14:57.778Z,0.00
2023-03-10T02:15:58.939Z,0.00
2023-03-10T02:16:58.390Z,0.00
2023-03-10T02:18:00.462Z,0.00
2023-03-10T02:18:58.590Z,0.00
2023-03-10T02:19:58.795Z,0.00
2023-03-10T02:20:59.888Z,0.00
2023-03-10T02:21:59.415Z,0.00
2023-03-10T02:23:01.844Z,0.00
2023-03-10T02:24:01.657Z,0.00
2023-03-10T02:25:01.358Z,0.00
2023-03-10T02:25:59.871Z,0.00
2023-03-10T02:27:00.411Z,0.00
2023-03-10T02:28:00.261Z,0.00
2023-03-10T02:29:00.908Z,0.00
2023-03-10T02:30:00.933Z,0.00
2023-03-10T02:31:00.618Z,0.00
2023-03-10T02:32:00.875Z,0.00
2023-03-10T02:33:01.900Z,0.00
2023-03-10T02:34:01.927Z,0.00
2023-03-10T02:35:01.908Z,0.00
2023-03-10T02:36:02.431Z,0.00
2023-03-10T02:37:03.416Z,0.00
2023-03-10T02:38:01.974Z,0.00
2023-03-10T02:39:02.904Z,0.00
2023-03-10T02:40:02.338Z,0.00
2023-03-10T02:41:02.521Z,0.00
2023-03-10T02:42:03.362Z,0.00
2023-03-10T02:43:02.902Z,0.00
2023-03-10T02:44:03.077Z,0.00
2023-03-10T02:45:03.290Z,0.00
2023-03-10T02:46:04.393Z,0.00
2023-03-10T02:47:03.705Z,0.00
2023-03-10T02:48:03.878Z,0.00
2023-03-10T02:49:04.091Z,0.00
2023-03-10T02:50:05.856Z,0.00
2023-03-10T02:51:05.419Z,0.00
2023-03-10T02:52:04.729Z,0.00
2023-03-10T02:53:04.993Z,0.00
2023-03-10T02:54:05.081Z,0.00
2023-03-10T02:55:05.207Z,0.00
2023-03-10T02:56:05.461Z,0.00
2023-03-10T02:57:05.647Z,0.00
2023-03-10T02:58:06.723Z,0.00
2023-03-10T02:59:06.075Z,0.00
2023-03-10T03:00:06.264Z,0.00
2023-03-10T03:01:07.468Z,0.00
2023-03-10T03:02:06.664Z,0.00
2023-03-10T03:03:06.879Z,0.00
2023-03-10T03:04:07.176Z,0.00
2023-03-10T03:05:08.228Z,0.00
2023-03-10T03:06:07.514Z,0.00
2023-03-10T03:07:07.719Z,0.00
2023-03-10T03:08:08.405Z,0.00
2023-03-10T03:09:08.096Z,0.00
2023-03-10T03:10:08.281Z,0.00
2023-03-10T03:11:08.457Z,0.00
2023-03-10T03:12:08.615Z,0.00
2023-03-10T03:13:08.800Z,0.00
2023-03-10T03:14:08.949Z,0.00
2023-03-10T03:15:09.083Z,0.00
2023-03-10T03:16:09.260Z,0.00
2023-03-10T03:17:09.457Z,0.00
2023-03-10T03:18:09.619Z,0.00
2023-03-10T03:19:09.782Z,0.00
2023-03-10T03:20:09.989Z,0.00
2023-03-10T03:21:10.913Z,0.00
2023-03-10T03:22:10.278Z,0.00
2023-03-10T03:23:11.415Z,0.00
2023-03-10T03:24:10.714Z,0.00
2023-03-10T03:25:10.880Z,0.00
2023-03-10T03:26:11.903Z,0.00
2023-03-10T03:27:11.183Z,0.00
2023-03-10T03:28:11.352Z,0.00
2023-03-10T03:29:11.490Z,0.00
2023-03-10T03:30:11.730Z,0.00
2023-03-10T03:31:12.419Z,0.00
2023-03-10T03:32:12.178Z,0.00
2023-03-10T03:33:12.245Z,0.00
2023-03-10T03:34:12.419Z,0.00
2023-03-10T03:35:14.366Z,0.00
2023-03-10T03:36:13.394Z,0.00
2023-03-10T03:37:12.886Z,0.00
2023-03-10T03:38:13.078Z,0.00
2023-03-10T03:39:13.791Z,0.00
2023-03-10T03:40:13.454Z,0.00
2023-03-10T03:41:13.614Z,0.00
2023-03-10T03:42:13.762Z,0.00
2023-03-10T03:43:14.879Z,0.00
2023-03-10T03:44:14.135Z,0.00
2023-03-10T03:45:14.297Z,0.00
2023-03-10T03:46:15.025Z,0.00
2023-03-10T03:47:15.380Z,0.00
2023-03-10T03:48:14.803Z,0.00
2023-03-10T03:49:14.979Z,0.00
2023-03-10T03:50:15.184Z,0.00
2023-03-10T03:51:15.390Z,0.00
2023-03-10T03:52:16.570Z,0.00
2023-03-10T03:53:17.406Z,0.00
2023-03-10T03:54:15.919Z,0.00
2023-03-10T03:55:16.092Z,0.00
2023-03-10T03:56:16.259Z,0.00
2023-03-10T03:57:16.440Z,0.00
2023-03-10T03:58:16.652Z,0.00
2023-03-10T03:59:17.424Z,0.00
2023-03-10T04:00:17.429Z,0.00
2023-03-10T04:01:17.115Z,0.00
2023-03-10T04:02:17.347Z,0.00
2023-03-10T04:03:17.483Z,0.00
2023-03-10T04:04:18.408Z,0.00
2023-03-10T04:05:18.415Z,0.00
2023-03-10T04:06:18.870Z,0.00
2023-03-10T04:07:18.002Z,0.00
2023-03-10T04:08:18.174Z,0.00
2023-03-10T04:09:18.428Z,0.00
2023-03-10T04:10:18.532Z,0.00
2023-03-10T04:11:19.370Z,0.00
2023-03-10T04:12:19.883Z,0.00
2023-03-10T04:13:19.060Z,0.00
2023-03-10T04:14:20.360Z,0.00
2023-03-10T04:15:20.430Z,0.00
2023-03-10T04:16:19.654Z,0.00
2023-03-10T04:17:21.872Z,0.00
2023-03-10T04:18:21.876Z,0.00
2023-03-10T04:19:20.876Z,0.00
2023-03-10T04:20:20.931Z,0.00
2023-03-10T04:21:20.909Z,0.00
2023-03-10T04:22:21.426Z,0.00
2023-03-10T04:23:20.725Z,0.00
2023-03-10T04:24:20.937Z,0.00
2023-03-10T04:25:21.132Z,0.00
2023-03-10T04:26:21.355Z,0.00
2023-03-10T04:27:21.530Z,0.00
2023-03-10T04:28:22.884Z,0.00
2023-03-10T04:29:21.961Z,0.00
2023-03-10T04:30:22.215Z,0.00
2023-03-10T04:31:22.592Z,0.00
2023-03-10T04:32:22.519Z,0.00
2023-03-10T04:33:22.693Z,0.00
2023-03-10T04:34:22.882Z,0.00
2023-03-10T04:35:23.879Z,0.00
2023-03-10T04:36:24.372Z,0.00
2023-03-10T04:37:23.422Z,0.00
2023-03-10T04:38:23.623Z,0.00
2023-03-10T04:39:23.843Z,0.00
2023-03-10T04:40:24.066Z,0.00
2023-03-10T04:41:24.866Z,0.00
2023-03-10T04:42:24.430Z,0.00
2023-03-10T04:43:24.652Z,0.00
2023-03-10T04:44:30.971Z,0.00
2023-03-10T04:45:27.041Z,0.00
2023-03-10T04:46:25.314Z,0.00
2023-03-10T04:47:25.437Z,0.00
2023-03-10T04:48:25.657Z,0.00
2023-03-10T04:49:26.796Z,0.00
2023-03-10T04:50:26.009Z,0.00
2023-03-10T04:51:27.382Z,0.00
2023-03-10T04:52:26.930Z,0.00
2023-03-10T04:53:26.633Z,0.00
2023-03-10T04:54:26.947Z,0.00
2023-03-10T04:55:27.743Z,0.00
2023-03-10T04:56:27.928Z,0.00
2023-03-10T04:57:27.435Z,0.00
2023-03-10T04:58:29.384Z,0.00
2023-03-10T04:59:28.389Z,0.00
2023-03-10T05:00:28.514Z,0.00
2023-03-10T05:01:27.996Z,0.00
2023-03-10T05:02:28.930Z,0.00
2023-03-10T05:03:28.888Z,0.00
2023-03-10T05:04:28.596Z,0.00
2023-03-10T05:05:28.828Z,0.00
2023-03-10T05:06:29.780Z,0.00
2023-03-10T05:07:28.966Z,0.00
2023-03-10T05:08:29.941Z,0.00
2023-03-10T05:09:29.366Z,0.00
2023-03-10T05:10:30.536Z,0.00
2023-03-10T05:11:29.677Z,0.00
2023-03-10T05:12:31.937Z,0.00
2023-03-10T05:13:32.050Z,0.00
2023-03-10T05:14:31.322Z,0.00
2023-03-10T05:15:31.407Z,0.00
2023-03-10T05:16:31.478Z,0.00
2023-03-10T05:17:30.913Z,0.00
2023-03-10T05:18:33.393Z,0.00
2023-03-10T05:19:31.883Z,0.00
2023-03-10T05:20:32.393Z,0.00
2023-03-10T05:21:31.930Z,0.00
2023-03-10T05:22:31.727Z,0.00
2023-03-10T05:23:32.433Z,0.00
2023-03-10T05:24:32.095Z,0.00
2023-03-10T05:25:32.295Z,0.00
2023-03-10T05:26:34.795Z,4.00
2023-03-10T05:27:33.624Z,4.00
2023-03-10T05:28:32.948Z,4.00
2023-03-10T05:29:33.030Z,4.00
2023-03-10T05:30:33.951Z,4.00
2023-03-10T05:31:33.404Z,4.00
2023-03-10T05:32:33.546Z,4.00
2023-03-10T05:33:33.620Z,4.00
2023-03-10T05:34:33.797Z,4.00
2023-03-10T05:35:34.996Z,4.00
2023-03-10T05:36:34.134Z,8.00
2023-03-10T05:37:34.326Z,4.00
2023-03-10T05:38:35.407Z,4.00
2023-03-10T05:39:34.685Z,4.00
2023-03-10T05:40:34.871Z,4.00
2023-03-10T05:41:35.963Z,8.00
2023-03-10T05:42:35.457Z,8.00
2023-03-10T05:43:35.405Z,8.00
2023-03-10T05:44:36.435Z,8.00
2023-03-10T05:45:35.726Z,12.00
2023-03-10T05:46:35.997Z,12.00
2023-03-10T05:47:36.146Z,16.00
2023-03-10T05:48:36.359Z,16.00
2023-03-10T05:49:38.641Z,20.00
2023-03-10T05:50:38.477Z,24.00
2023-03-10T05:51:36.813Z,28.00
2023-03-10T05:52:37.000Z,32.00
2023-03-10T05:53:38.901Z,36.00
2023-03-10T05:54:37.416Z,40.00
2023-03-10T05:55:38.913Z,48.00
2023-03-10T05:56:37.967Z,60.00
2023-03-10T05:57:40.256Z,64.00
2023-03-10T05:58:38.897Z,76.00
2023-03-10T05:59:38.899Z,84.00
2023-03-10T06:00:39.437Z,96.00
2023-03-10T06:01:38.623Z,116.00
2023-03-10T06:02:38.836Z,140.00
2023-03-10T06:03:39.112Z,164.00
2023-03-10T06:04:39.206Z,192.00
2023-03-10T06:05:39.395Z,208.00
2023-03-10T06:06:40.404Z,224.00
2023-03-10T06:07:40.452Z,244.00
2023-03-10T06:08:40.010Z,300.00
2023-03-10T06:09:40.210Z,372.00
2023-03-10T06:10:41.396Z,416.00
2023-03-10T06:11:40.951Z,432.00
2023-03-10T06:12:42.261Z,392.00
2023-03-10T06:13:40.959Z,328.00
2023-03-10T06:14:41.065Z,296.00
2023-03-10T06:15:41.944Z,328.00
2023-03-10T06:16:42.990Z,396.00
2023-03-10T06:17:41.560Z,476.00
2023-03-10T06:18:41.788Z,540.00
2023-03-10T06:19:41.971Z,588.00
2023-03-10T06:20:42.154Z,636.00
2023-03-10T06:21:44.350Z,728.00
2023-03-10T06:22:43.459Z,828.00
2023-03-10T06:23:43.506Z,980.00
2023-03-10T06:24:43.764Z,1160.00
2023-03-10T06:25:43.024Z,1360.00
2023-03-10T06:26:43.196Z,1480.00
2023-03-10T06:27:44.403Z,1460.00
2023-03-10T06:28:43.540Z,1504.00
2023-03-10T06:29:44.409Z,1472.00
2023-03-10T06:30:45.413Z,1328.00
2023-03-10T06:31:44.235Z,1296.00
2023-03-10T06:32:44.964Z,1300.00
2023-03-10T06:33:44.611Z,1300.00
2023-03-10T06:34:44.776Z,1312.00
2023-03-10T06:35:45.033Z,1180.00
2023-03-10T06:36:45.063Z,992.00
2023-03-10T06:37:45.207Z,1024.00
2023-03-10T06:38:46.924Z,1168.00
2023-03-10T06:39:45.526Z,1448.00
2023-03-10T06:40:45.713Z,1620.00
2023-03-10T06:41:45.876Z,1492.00
2023-03-10T06:42:47.910Z,1204.00
2023-03-10T06:43:46.263Z,1028.00
2023-03-10T06:44:49.202Z,984.00
2023-03-10T06:45:48.538Z,984.00
2023-03-10T06:46:46.958Z,956.00
2023-03-10T06:47:47.907Z,876.00
2023-03-10T06:48:47.951Z,784.00
2023-03-10T06:49:47.902Z,748.00
2023-03-10T06:50:48.271Z,812.00
2023-03-10T06:51:47.620Z,968.00
2023-03-10T06:52:47.765Z,1136.00
2023-03-10T06:53:47.884Z,1396.00
2023-03-10T06:54:48.037Z,1756.00
2023-03-10T06:55:48.217Z,2064.00
2023-03-10T06:56:48.911Z,1772.00
2023-03-10T06:57:49.416Z,1696.00
2023-03-10T06:58:48.652Z,1736.00
2023-03-10T06:59:49.775Z,1792.00
2023-03-10T07:00:49.089Z,1680.00
2023-03-10T07:01:49.956Z,1240.00
2023-03-10T07:02:49.915Z,764.00
2023-03-10T07:03:49.626Z,752.00
2023-03-10T07:04:50.545Z,916.00
2023-03-10T07:05:49.986Z,860.00
2023-03-10T07:06:50.144Z,796.00
2023-03-10T07:07:50.317Z,640.00
2023-03-10T07:08:51.408Z,572.00
2023-03-10T07:09:50.672Z,600.00
2023-03-10T07:10:51.842Z,580.00
2023-03-10T07:11:52.908Z,528.00
2023-03-10T07:12:51.466Z,520.00
2023-03-10T07:13:51.495Z,484.00
2023-03-10T07:14:51.644Z,480.00
2023-03-10T07:15:51.822Z,484.00
2023-03-10T07:16:52.085Z,492.00
2023-03-10T07:17:52.227Z,496.00
2023-03-10T07:18:52.958Z,496.00
2023-03-10T07:19:53.408Z,488.00
2023-03-10T07:20:52.801Z,476.00
2023-03-10T07:21:52.965Z,468.00
2023-03-10T07:22:54.438Z,444.00
2023-03-10T07:23:53.954Z,452.00
2023-03-10T07:24:53.460Z,460.00
2023-03-10T07:25:54.913Z,568.00
2023-03-10T07:26:54.409Z,744.00
2023-03-10T07:27:55.408Z,944.00
2023-03-10T07:28:54.167Z,1140.00
2023-03-10T07:29:54.348Z,1304.00
2023-03-10T07:30:55.565Z,1256.00
2023-03-10T07:31:55.277Z,1192.00
2023-03-10T07:32:55.066Z,1296.00
2023-03-10T07:33:55.959Z,1308.00
2023-03-10T07:34:55.233Z,1800.00
2023-03-10T07:35:55.409Z,2812.00
2023-03-10T07:36:55.645Z,2716.00
2023-03-10T07:37:55.840Z,2236.00
2023-03-10T07:38:56.981Z,1996.00
2023-03-10T07:39:56.952Z,1764.00
2023-03-10T07:40:56.501Z,1696.00
2023-03-10T07:41:56.715Z,1468.00
2023-03-10T07:42:57.915Z,1600.00
2023-03-10T07:43:57.035Z,1908.00
2023-03-10T07:44:57.972Z,1924.00
2023-03-10T07:45:58.002Z,1864.00
2023-03-10T07:46:57.976Z,2108.00
2023-03-10T07:47:57.749Z,3660.00
2023-03-10T07:48:58.792Z,5568.00
2023-03-10T07:49:58.172Z,8432.00
2023-03-10T07:50:58.307Z,7172.00
2023-03-10T07:51:58.970Z,6112.00
2023-03-10T07:52:59.426Z,6076.00
2023-03-10T07:54:00.425Z,4644.00
2023-03-10T07:54:59.043Z,3924.00
2023-03-10T07:56:00.428Z,2972.00
2023-03-10T07:56:59.511Z,2832.00
2023-03-10T07:58:00.484Z,2864.00
2023-03-10T07:58:59.876Z,2484.00
2023-03-10T08:00:00.055Z,2384.00
2023-03-10T08:01:00.241Z,2788.00
2023-03-10T08:02:00.393Z,3068.00
2023-03-10T08:03:01.422Z,2836.00
2023-03-10T08:04:00.821Z,2600.00
2023-03-10T08:05:00.854Z,2796.00
2023-03-10T08:06:00.966Z,2852.00
2023-03-10T08:07:01.121Z,2804.00
2023-03-10T08:08:01.929Z,2744.00
2023-03-10T08:09:01.459Z,3048.00
2023-03-10T08:10:01.665Z,3788.00
2023-03-10T08:11:01.815Z,4572.00
2023-03-10T08:12:01.982Z,4908.00
2023-03-10T08:13:02.928Z,5208.00
2023-03-10T08:14:03.975Z,4744.00
2023-03-10T08:15:36.659Z,4732.00
2023-03-10T08:16:03.540Z,3364.00
2023-03-10T08:17:02.804Z,2900.00
2023-03-10T08:18:02.950Z,3384.00
2023-03-10T08:19:05.826Z,3912.00
2023-03-10T08:20:03.359Z,5192.00
2023-03-10T08:21:04.035Z,3744.00
2023-03-10T08:22:05.466Z,3112.00
2023-03-10T08:23:04.509Z,2612.00
2023-03-10T08:24:04.027Z,2512.00
2023-03-10T08:25:04.978Z,3136.00
2023-03-10T08:26:04.374Z,4560.00
2023-03-10T08:27:05.481Z,4912.00
2023-03-10T08:28:05.506Z,4660.00
2023-03-10T08:29:06.329Z,4336.00
2023-03-10T08:30:05.079Z,4556.00
2023-03-10T08:31:05.643Z,4768.00
2023-03-10T08:32:06.510Z,5456.00
2023-03-10T08:33:05.665Z,6468.00
2023-03-10T08:34:05.779Z,13488.00
2023-03-10T08:35:05.972Z,6916.00
2023-03-10T08:36:07.061Z,4768.00
2023-03-10T08:37:07.006Z,4364.00
2023-03-10T08:38:06.536Z,4852.00
2023-03-10T08:39:08.473Z,6300.00
2023-03-10T08:40:06.858Z,4608.00
2023-03-10T08:41:08.047Z,5040.00
2023-03-10T08:42:07.228Z,5408.00
2023-03-10T08:43:08.015Z,5548.00
2023-03-10T08:44:07.519Z,6308.00
2023-03-10T08:45:08.814Z,7768.00
2023-03-10T08:46:09.085Z,9564.00
2023-03-10T08:47:09.123Z,9204.00
2023-03-10T08:48:08.280Z,11956.00
2023-03-10T08:49:08.408Z,13468.00
2023-03-10T08:50:08.594Z,14056.00
2023-03-10T08:51:08.749Z,15036.00
2023-03-10T08:52:09.513Z,13316.00
2023-03-10T08:53:10.026Z,24192.00
2023-03-10T08:54:10.016Z,55104.00
2023-03-10T08:55:10.336Z,13204.00
2023-03-10T08:56:09.610Z,25696.00
2023-03-10T08:57:09.780Z,49088.00
2023-03-10T08:58:10.046Z,11276.00
2023-03-10T08:59:10.121Z,9544.00
2023-03-10T09:00:10.311Z,9504.00
2023-03-10T09:01:11.563Z,11368.00
2023-03-10T09:02:10.790Z,9076.00
2023-03-10T09:03:10.939Z,8608.00
2023-03-10T09:04:11.057Z,7932.00
2023-03-10T09:05:11.979Z,7892.00
2023-03-10T09:06:11.389Z,7388.00
2023-03-10T09:07:12.519Z,7996.00
2023-03-10T09:08:11.852Z,15628.00
2023-03-10T09:09:12.046Z,10984.00
2023-03-10T09:10:12.236Z,11744.00
2023-03-10T09:11:13.019Z,10968.00
2023-03-10T09:12:14.532Z,24192.00
2023-03-10T09:13:14.288Z,16000.00
2023-03-10T09:14:16.676Z,12288.00
2023-03-10T09:15:14.146Z,10712.00
2023-03-10T09:16:14.041Z,9592.00
2023-03-10T09:17:14.984Z,10964.00
2023-03-10T09:18:13.735Z,9048.00
2023-03-10T09:19:13.898Z,8496.00
2023-03-10T09:20:14.062Z,7312.00
2023-03-10T09:21:14.249Z,6260.00
2023-03-10T09:22:14.411Z,5200.00
2023-03-10T09:23:14.597Z,4272.00
2023-03-10T09:24:14.755Z,3712.00
2023-03-10T09:25:14.905Z,3336.00
2023-03-10T09:26:15.093Z,3184.00
2023-03-10T09:27:15.248Z,3344.00
2023-03-10T09:28:18.246Z,3464.00
2023-03-10T09:29:17.565Z,3688.00
2023-03-10T09:30:16.487Z,4304.00
2023-03-10T09:31:16.136Z,4960.00
2023-03-10T09:32:17.150Z,4824.00
2023-03-10T09:33:16.230Z,5204.00
2023-03-10T09:34:17.027Z,5652.00
2023-03-10T09:35:16.544Z,6116.00
2023-03-10T09:36:18.668Z,6184.00
2023-03-10T09:37:17.541Z,6352.00
2023-03-10T09:38:17.988Z,6792.00
2023-03-10T09:39:18.033Z,6188.00
2023-03-10T09:40:18.001Z,5732.00
2023-03-10T09:41:18.530Z,5012.00
2023-03-10T09:42:25.480Z,4332.00
2023-03-10T09:43:20.508Z,3992.00
2023-03-10T09:44:18.115Z,3916.00
2023-03-10T09:45:19.030Z,3888.00
2023-03-10T09:46:18.499Z,4088.00
2023-03-10T09:47:20.113Z,4516.00
2023-03-10T09:48:19.801Z,4764.00
2023-03-10T09:49:18.981Z,5036.00
2023-03-10T09:50:20.037Z,5068.00
2023-03-10T09:51:19.311Z,5260.00
2023-03-10T09:52:19.477Z,5452.00
2023-03-10T09:53:19.666Z,5888.00
2023-03-10T09:54:19.834Z,6448.00
2023-03-10T09:55:19.984Z,6700.00
2023-03-10T09:56:20.149Z,6712.00
2023-03-10T09:57:20.335Z,7016.00
2023-03-10T09:58:20.551Z,9484.00
2023-03-10T09:59:20.733Z,8424.00
2023-03-10T10:00:21.497Z,7956.00
2023-03-10T10:01:21.111Z,7396.00
2023-03-10T10:02:22.044Z,7096.00
2023-03-10T10:03:21.474Z,6840.00
2023-03-10T10:04:21.796Z,7024.00
2023-03-10T10:05:21.778Z,6988.00
2023-03-10T10:06:21.923Z,7912.00
2023-03-10T10:07:22.111Z,11456.00
2023-03-10T10:08:22.269Z,8024.00
2023-03-10T10:09:22.445Z,7092.00
2023-03-10T10:10:23.998Z,6776.00
2023-03-10T10:11:23.492Z,6636.00
2023-03-10T10:12:22.922Z,6332.00
2023-03-10T10:13:23.107Z,6412.00
2023-03-10T10:14:31.693Z,6144.00
2023-03-10T10:15:26.497Z,6088.00
2023-03-10T10:16:33.884Z,5580.00
2023-03-10T10:17:26.599Z,4744.00
2023-03-10T10:18:25.999Z,4024.00
2023-03-10T10:19:25.180Z,3624.00
2023-03-10T10:20:24.328Z,3544.00
2023-03-10T10:21:28.161Z,3908.00
2023-03-10T10:22:27.364Z,4040.00
2023-03-10T10:23:25.500Z,3692.00
2023-03-10T10:24:26.505Z,3340.00
2023-03-10T10:25:26.041Z,3244.00
2023-03-10T10:26:25.550Z,3400.00
2023-03-10T10:27:27.013Z,3740.00
2023-03-10T10:28:25.904Z,4068.00
2023-03-10T10:29:26.081Z,4028.00
2023-03-10T10:30:28.576Z,4264.00
2023-03-10T10:31:26.628Z,4552.00
2023-03-10T10:32:26.693Z,4888.00
2023-03-10T10:33:26.880Z,4796.00
2023-03-10T10:34:27.022Z,4652.00
2023-03-10T10:35:27.199Z,4840.00
2023-03-10T10:36:27.402Z,5436.00
2023-03-10T10:37:28.520Z,5596.00
2023-03-10T10:38:27.789Z,5452.00
2023-03-10T10:39:28.394Z,5528.00
2023-03-10T10:40:30.047Z,5912.00
2023-03-10T10:41:29.506Z,6480.00
2023-03-10T10:42:29.045Z,6944.00
2023-03-10T10:43:29.427Z,7040.00
2023-03-10T10:44:30.505Z,7028.00
2023-03-10T10:45:30.005Z,6988.00
2023-03-10T10:46:30.077Z,6400.00
2023-03-10T10:47:29.430Z,6080.00
2023-03-10T10:48:29.621Z,6132.00
2023-03-10T10:49:29.812Z,6204.00
2023-03-10T10:50:29.998Z,6180.00
2023-03-10T10:51:30.212Z,6124.00
2023-03-10T10:52:30.561Z,5972.00
2023-03-10T10:53:31.054Z,5836.00
2023-03-10T10:54:31.063Z,5512.00
2023-03-10T10:55:30.870Z,5204.00
2023-03-10T10:56:31.053Z,5184.00
2023-03-10T10:57:31.253Z,5240.00
2023-03-10T10:58:33.015Z,5176.00
2023-03-10T10:59:31.660Z,5044.00
2023-03-10T11:00:32.073Z,5100.00
2023-03-10T11:01:32.615Z,5216.00
2023-03-10T11:02:32.253Z,5516.00
2023-03-10T11:03:33.237Z,6252.00
2023-03-10T11:04:33.480Z,6060.00
2023-03-10T11:05:32.681Z,5840.00
2023-03-10T11:06:34.018Z,5688.00
2023-03-10T11:07:34.018Z,5608.00
2023-03-10T11:08:33.178Z,5628.00
2023-03-10T11:09:34.019Z,5724.00
2023-03-10T11:10:34.521Z,7068.00
2023-03-10T11:11:35.020Z,6348.00
2023-03-10T11:12:34.521Z,6204.00
2023-03-10T11:13:36.025Z,5716.00
2023-03-10T11:14:35.886Z,6916.00
2023-03-10T11:15:34.600Z,6260.00
2023-03-10T11:16:35.520Z,6752.00
2023-03-10T11:17:35.526Z,7160.00
2023-03-10T11:18:35.067Z,8300.00
2023-03-10T11:19:35.265Z,8768.00
2023-03-10T11:20:36.061Z,7568.00
2023-03-10T11:21:35.605Z,7740.00
2023-03-10T11:22:36.079Z,7932.00
2023-03-10T11:23:36.032Z,7772.00
2023-03-10T11:24:38.044Z,7584.00
2023-03-10T11:25:37.026Z,7352.00
2023-03-10T11:26:37.529Z,7392.00
2023-03-10T11:27:36.712Z,7280.00
2023-03-10T11:28:37.563Z,6368.00
2023-03-10T11:29:37.134Z,6544.00
2023-03-10T11:30:38.071Z,6008.00
2023-03-10T11:31:37.347Z,6160.00
2023-03-10T11:32:38.133Z,6400.00
2023-03-10T11:33:37.718Z,6912.00
2023-03-10T11:34:37.899Z,7628.00
2023-03-10T11:35:38.122Z,8024.00
2023-03-10T11:36:49.562Z,8132.00
2023-03-10T11:37:41.046Z,7972.00
2023-03-10T11:38:39.079Z,7796.00
2023-03-10T11:39:39.578Z,8300.00
2023-03-10T11:40:39.113Z,9012.00
2023-03-10T11:41:39.283Z,9136.00
2023-03-10T11:42:39.466Z,8920.00
2023-03-10T11:43:39.650Z,8020.00
2023-03-10T11:44:40.569Z,7156.00
2023-03-10T11:45:39.984Z,6336.00
2023-03-10T11:46:41.631Z,6096.00
2023-03-10T11:47:41.958Z,6288.00
2023-03-10T11:48:41.681Z,6376.00
2023-03-10T11:49:40.841Z,5928.00
2023-03-10T11:50:41.584Z,5872.00
2023-03-10T11:51:41.278Z,6200.00
2023-03-10T11:52:41.437Z,6512.00
2023-03-10T11:53:41.613Z,6504.00
2023-03-10T11:54:42.816Z,6808.00
2023-03-10T11:55:42.577Z,6192.00
2023-03-10T11:56:43.219Z,6020.00
2023-03-10T11:57:42.409Z,6348.00
2023-03-10T11:58:43.541Z,6048.00
2023-03-10T11:59:42.831Z,6176.00
2023-03-10T12:00:43.527Z,6332.00
2023-03-10T12:01:43.200Z,6136.00
2023-03-10T12:02:43.621Z,6028.00
2023-03-10T12:03:43.589Z,5732.00
2023-03-10T12:04:44.580Z,5244.00
2023-03-10T12:05:44.654Z,4756.00
2023-03-10T12:06:44.187Z,4380.00
2023-03-10T12:07:44.386Z,4200.00
2023-03-10T12:08:44.549Z,4188.00
2023-03-10T12:09:44.718Z,4340.00
2023-03-10T12:10:44.915Z,4612.00
2023-03-10T12:11:45.063Z,4808.00
2023-03-10T12:12:45.240Z,4860.00
2023-03-10T12:13:45.410Z,4944.00
2023-03-10T12:14:46.076Z,5012.00
2023-03-10T12:15:45.791Z,5092.00
2023-03-10T12:16:46.099Z,5304.00
2023-03-10T12:17:48.040Z,5704.00
2023-03-10T12:18:46.310Z,5736.00
2023-03-10T12:19:46.515Z,5364.00
2023-03-10T12:20:48.548Z,5140.00
2023-03-10T12:21:48.543Z,4892.00
2023-03-10T12:22:48.080Z,4412.00
2023-03-10T12:23:49.554Z,3960.00
2023-03-10T12:24:47.609Z,3672.00
2023-03-10T12:25:47.809Z,3292.00
2023-03-10T12:26:48.019Z,2928.00
2023-03-10T12:27:49.221Z,2560.00
2023-03-10T12:28:49.078Z,2308.00
2023-03-10T12:29:49.095Z,2076.00
2023-03-10T12:30:49.402Z,1932.00
2023-03-10T12:31:48.992Z,1828.00
2023-03-10T12:32:50.108Z,1800.00
2023-03-10T12:33:50.102Z,1596.00
2023-03-10T12:34:49.436Z,1308.00
2023-03-10T12:35:49.649Z,1148.00
2023-03-10T12:36:49.834Z,1200.00
2023-03-10T12:37:50.091Z,1396.00
2023-03-10T12:38:51.099Z,1696.00
2023-03-10T12:39:51.045Z,2192.00
2023-03-10T12:40:50.589Z,2768.00
2023-03-10T12:41:51.585Z,3196.00